sensor_id;sensor_type;location;lat;lon;timestamp;pressure;altitude;pressure_sealevel;temperature;humidity
61761;BME280;47664;51.660;-0.100;2023-03-31T00:00:00;98827.29;;;9.01;73.71
61761;BME280;47664;51.660;-0.100;2023-03-31T00:02:27;98816.08;;;9.55;72.98
61761;BME280;47664;51.660;-0.100;2023-03-31T00:04:55;98808.08;;;10.04;72.14
61761;BME280;47664;51.660;-0.100;2023-03-31T00:07:22;98796.48;;;9.71;72.09
61761;BME280;47664;51.660;-0.100;2023-03-31T00:09:50;98779.71;;;10.00;71.29
61761;BME280;47664;51.660;-0.100;2023-03-31T00:12:17;98780.54;;;9.40;71.66
61761;BME280;47664;51.660;-0.100;2023-03-31T00:14:44;98766.02;;;9.56;71.33
61761;BME280;47664;51.660;-0.100;2023-03-31T00:17:12;98756.42;;;9.27;71.59
61761;BME280;47664;51.660;-0.100;2023-03-31T00:19:39;98750.40;;;9.60;71.37
61761;BME280;47664;51.660;-0.100;2023-03-31T00:22:07;98746.68;;;9.42;70.55
61761;BME280;47664;51.660;-0.100;2023-03-31T00:24:35;98742.85;;;9.55;70.49
61761;BME280;47664;51.660;-0.100;2023-03-31T00:27:04;98732.97;;;8.96;70.27
61761;BME280;47664;51.660;-0.100;2023-03-31T00:29:31;98733.52;;;9.43;69.66
61761;BME280;47664;51.660;-0.100;2023-03-31T00:31:58;98724.70;;;9.45;68.39
61761;BME280;47664;51.660;-0.100;2023-03-31T00:34:26;98728.10;;;10.02;68.69
61761;BME280;47664;51.660;-0.100;2023-03-31T00:36:54;98718.58;;;10.44;68.05
61761;BME280;47664;51.660;-0.100;2023-03-31T00:39:21;98709.81;;;10.12;67.73
61761;BME280;47664;51.660;-0.100;2023-03-31T00:41:49;98700.06;;;9.96;69.37
61761;BME280;47664;51.660;-0.100;2023-03-31T00:44:18;98697.34;;;9.35;70.46
61761;BME280;47664;51.660;-0.100;2023-03-31T00:46:50;98696.78;;;9.56;69.20
61761;BME280;47664;51.660;-0.100;2023-03-31T00:49:24;98680.07;;;9.66;69.67
61761;BME280;47664;51.660;-0.100;2023-03-31T00:51:55;98677.58;;;9.71;70.48
61761;BME280;47664;51.660;-0.100;2023-03-31T00:54:25;98664.54;;;9.68;70.41
61761;BME280;47664;51.660;-0.100;2023-03-31T00:56:54;98660.49;;;9.79;71.09
61761;BME280;47664;51.660;-0.100;2023-03-31T00:59:26;98655.94;;;9.35;72.31
61761;BME280;47664;51.660;-0.100;2023-03-31T01:01:55;98639.99;;;9.29;71.70
61761;BME280;47664;51.660;-0.100;2023-03-31T01:04:23;98625.28;;;8.93;71.82
61761;BME280;47664;51.660;-0.100;2023-03-31T01:06:55;98612.19;;;8.87;72.47
61761;BME280;47664;51.660;-0.100;2023-03-31T01:09:25;98601.32;;;8.77;72.71
61761;BME280;47664;51.660;-0.100;2023-03-31T01:11:53;98596.76;;;9.03;72.79
61761;BME280;47664;51.660;-0.100;2023-03-31T01:14:21;98584.48;;;8.82;72.35
61761;BME280;47664;51.660;-0.100;2023-03-31T01:16:48;98572.90;;;9.31;73.34
61761;BME280;47664;51.660;-0.100;2023-03-31T01:19:22;98562.44;;;8.92;73.56
61761;BME280;47664;51.660;-0.100;2023-03-31T01:22:22;98558.58;;;8.77;74.54
61761;BME280;47664;51.660;-0.100;2023-03-31T01:25:28;98549.20;;;8.60;74.71
61761;BME280;47664;51.660;-0.100;2023-03-31T01:28:13;98530.25;;;7.61;75.60
61761;BME280;47664;51.660;-0.100;2023-03-31T01:32:16;98518.41;;;7.91;76.37
61761;BME280;47664;51.660;-0.100;2023-03-31T01:35:01;98506.08;;;8.93;74.88
61761;BME280;47664;51.660;-0.100;2023-03-31T01:38:06;98498.07;;;8.75;74.92
61761;BME280;47664;51.660;-0.100;2023-03-31T01:40:51;98490.73;;;9.02;74.04
61761;BME280;47664;51.660;-0.100;2023-03-31T01:43:22;98479.42;;;8.92;74.35
61761;BME280;47664;51.660;-0.100;2023-03-31T01:45:59;98473.00;;;9.07;74.18
61761;BME280;47664;51.660;-0.100;2023-03-31T01:48:34;98468.03;;;8.73;75.80
61761;BME280;47664;51.660;-0.100;2023-03-31T01:51:13;98462.84;;;8.09;75.91
61761;BME280;47664;51.660;-0.100;2023-03-31T01:53:49;98450.45;;;8.90;75.84
61761;BME280;47664;51.660;-0.100;2023-03-31T01:56:20;98447.08;;;8.97;75.68
61761;BME280;47664;51.660;-0.100;2023-03-31T01:58:52;98437.78;;;9.34;74.31
61761;BME280;47664;51.660;-0.100;2023-03-31T02:01:24;98424.77;;;9.16;74.50
61761;BME280;47664;51.660;-0.100;2023-03-31T02:03:57;98419.32;;;9.44;75.08
61761;BME280;47664;51.660;-0.100;2023-03-31T02:06:29;98411.94;;;8.97;74.36
61761;BME280;47664;51.660;-0.100;2023-03-31T02:09:02;98403.40;;;8.77;73.70
61761;BME280;47664;51.660;-0.100;2023-03-31T02:11:33;98389.16;;;9.59;72.74
61761;BME280;47664;51.660;-0.100;2023-03-31T02:14:04;98374.84;;;8.82;73.43
61761;BME280;47664;51.660;-0.100;2023-03-31T02:16:36;98370.78;;;9.89;72.02
61761;BME280;47664;51.660;-0.100;2023-03-31T02:19:06;98367.46;;;9.21;71.65
61761;BME280;47664;51.660;-0.100;2023-03-31T02:21:37;98353.67;;;9.74;72.35
61761;BME280;47664;51.660;-0.100;2023-03-31T02:24:09;98353.16;;;9.60;71.54
61761;BME280;47664;51.660;-0.100;2023-03-31T02:26:41;98344.45;;;9.86;71.82
61761;BME280;47664;51.660;-0.100;2023-03-31T02:29:11;98340.62;;;9.65;71.21
61761;BME280;47664;51.660;-0.100;2023-03-31T02:31:45;98331.91;;;10.00;70.53
61761;BME280;47664;51.660;-0.100;2023-03-31T02:34:13;98320.37;;;9.94;70.47
61761;BME280;47664;51.660;-0.100;2023-03-31T02:36:41;98317.23;;;10.18;71.10
61761;BME280;47664;51.660;-0.100;2023-03-31T02:39:12;98305.36;;;9.56;71.56
61761;BME280;47664;51.660;-0.100;2023-03-31T02:41:41;98299.36;;;9.91;71.45
61761;BME280;47664;51.660;-0.100;2023-03-31T02:44:09;98290.15;;;9.77;71.13
61761;BME280;47664;51.660;-0.100;2023-03-31T02:46:37;98272.01;;;9.55;71.93
61761;BME280;47664;51.660;-0.100;2023-03-31T02:49:06;98271.46;;;8.78;71.46
61761;BME280;47664;51.660;-0.100;2023-03-31T02:51:46;98266.82;;;10.01;70.89
61761;BME280;47664;51.660;-0.100;2023-03-31T02:54:36;98258.82;;;10.06;70.24
61761;BME280;47664;51.660;-0.100;2023-03-31T02:57:19;98249.31;;;9.43;69.70
61761;BME280;47664;51.660;-0.100;2023-03-31T03:00:02;98242.07;;;10.12;70.22
61761;BME280;47664;51.660;-0.100;2023-03-31T03:02:39;98239.82;;;9.85;70.41
61761;BME280;47664;51.660;-0.100;2023-03-31T03:05:21;98232.17;;;9.96;70.14
61761;BME280;47664;51.660;-0.100;2023-03-31T03:07:57;98220.26;;;10.40;70.10
61761;BME280;47664;51.660;-0.100;2023-03-31T03:10:34;98217.58;;;10.12;70.11
61761;BME280;47664;51.660;-0.100;2023-03-31T03:13:12;98201.58;;;10.02;69.25
61761;BME280;47664;51.660;-0.100;2023-03-31T03:15:46;98199.46;;;9.97;70.60
61761;BME280;47664;51.660;-0.100;2023-03-31T03:18:14;98195.06;;;9.62;71.90
61761;BME280;47664;51.660;-0.100;2023-03-31T03:20:42;98184.62;;;9.37;72.48
61761;BME280;47664;51.660;-0.100;2023-03-31T03:23:09;98181.91;;;9.86;71.33
61761;BME280;47664;51.660;-0.100;2023-03-31T03:25:36;98169.46;;;9.87;70.99
61761;BME280;47664;51.660;-0.100;2023-03-31T03:28:03;98166.43;;;8.89;72.05
61761;BME280;47664;51.660;-0.100;2023-03-31T03:30:30;98156.11;;;9.39;71.75
61761;BME280;47664;51.660;-0.100;2023-03-31T03:32:57;98145.14;;;9.45;71.16
61761;BME280;47664;51.660;-0.100;2023-03-31T03:35:25;98137.23;;;9.53;70.62
61761;BME280;47664;51.660;-0.100;2023-03-31T03:37:52;98120.99;;;9.98;69.75
61761;BME280;47664;51.660;-0.100;2023-03-31T03:40:19;98113.08;;;9.66;70.38
61761;BME280;47664;51.660;-0.100;2023-03-31T03:42:46;98111.94;;;9.83;70.16
61761;BME280;47664;51.660;-0.100;2023-03-31T03:45:13;98105.21;;;9.12;71.06
61761;BME280;47664;51.660;-0.100;2023-03-31T03:47:40;98105.09;;;9.47;71.98
61761;BME280;47664;51.660;-0.100;2023-03-31T03:50:08;98102.31;;;9.26;70.97
61761;BME280;47664;51.660;-0.100;2023-03-31T03:52:36;98095.52;;;9.68;71.80
61761;BME280;47664;51.660;-0.100;2023-03-31T03:55:04;98090.85;;;8.89;71.15
61761;BME280;47664;51.660;-0.100;2023-03-31T03:57:31;98080.84;;;9.36;72.75
61761;BME280;47664;51.660;-0.100;2023-03-31T03:59:59;98075.45;;;8.71;73.30
61761;BME280;47664;51.660;-0.100;2023-03-31T04:02:26;98075.54;;;9.44;72.11
61761;BME280;47664;51.660;-0.100;2023-03-31T04:04:54;98069.43;;;9.49;72.34
61761;BME280;47664;51.660;-0.100;2023-03-31T04:07:21;98055.98;;;9.61;71.79
61761;BME280;47664;51.660;-0.100;2023-03-31T04:09:48;98051.97;;;9.47;71.14
61761;BME280;47664;51.660;-0.100;2023-03-31T04:12:15;98049.90;;;9.46;71.50
61761;BME280;47664;51.660;-0.100;2023-03-31T04:14:42;98046.76;;;9.37;71.84
61761;BME280;47664;51.660;-0.100;2023-03-31T04:17:10;98033.29;;;9.11;71.64
61761;BME280;47664;51.660;-0.100;2023-03-31T04:19:37;98032.02;;;9.05;71.49
61761;BME280;47664;51.660;-0.100;2023-03-31T04:22:04;98031.18;;;8.46;72.05
61761;BME280;47664;51.660;-0.100;2023-03-31T04:24:31;98027.69;;;9.19;72.46
61761;BME280;47664;51.660;-0.100;2023-03-31T04:26:59;98014.84;;;9.26;71.45
61761;BME280;47664;51.660;-0.100;2023-03-31T04:29:27;98009.48;;;9.04;70.93
61761;BME280;47664;51.660;-0.100;2023-03-31T04:31:55;98006.61;;;9.83;69.26
61761;BME280;47664;51.660;-0.100;2023-03-31T04:34:22;97999.19;;;9.38;69.66
61761;BME280;47664;51.660;-0.100;2023-03-31T04:36:50;97987.36;;;9.69;68.95
61761;BME280;47664;51.660;-0.100;2023-03-31T04:39:18;97984.37;;;9.15;69.48
61761;BME280;47664;51.660;-0.100;2023-03-31T04:41:45;97983.71;;;9.56;68.84
61761;BME280;47664;51.660;-0.100;2023-03-31T04:44:13;97985.47;;;9.15;69.52
61761;BME280;47664;51.660;-0.100;2023-03-31T04:46:39;97971.03;;;9.58;68.94
61761;BME280;47664;51.660;-0.100;2023-03-31T04:49:07;97970.94;;;9.22;68.55
61761;BME280;47664;51.660;-0.100;2023-03-31T04:51:34;97966.25;;;9.66;69.04
61761;BME280;47664;51.660;-0.100;2023-03-31T04:54:01;97962.67;;;9.21;68.53
61761;BME280;47664;51.660;-0.100;2023-03-31T04:56:29;97955.50;;;9.37;69.82
61761;BME280;47664;51.660;-0.100;2023-03-31T04:58:56;97946.09;;;9.36;70.29
61761;BME280;47664;51.660;-0.100;2023-03-31T05:01:23;97944.88;;;9.13;70.13
61761;BME280;47664;51.660;-0.100;2023-03-31T05:03:51;97935.82;;;9.43;70.27
61761;BME280;47664;51.660;-0.100;2023-03-31T05:06:18;97933.09;;;9.03;70.59
61761;BME280;47664;51.660;-0.100;2023-03-31T05:08:45;97922.91;;;9.40;70.90
61761;BME280;47664;51.660;-0.100;2023-03-31T05:11:12;97918.45;;;8.75;70.64
61761;BME280;47664;51.660;-0.100;2023-03-31T05:13:39;97910.87;;;9.70;70.13
61761;BME280;47664;51.660;-0.100;2023-03-31T05:16:07;97908.41;;;8.76;69.40
61761;BME280;47664;51.660;-0.100;2023-03-31T05:18:35;97909.87;;;9.41;69.60
61761;BME280;47664;51.660;-0.100;2023-03-31T05:21:11;97907.26;;;9.01;68.03
61761;BME280;47664;51.660;-0.100;2023-03-31T05:23:39;97899.99;;;9.78;68.32
61761;BME280;47664;51.660;-0.100;2023-03-31T05:26:07;97899.29;;;9.49;68.68
61761;BME280;47664;51.660;-0.100;2023-03-31T05:28:34;97890.61;;;9.49;68.85
61761;BME280;47664;51.660;-0.100;2023-03-31T05:31:04;97891.56;;;9.36;69.36
61761;BME280;47664;51.660;-0.100;2023-03-31T05:33:31;97886.51;;;9.72;69.55
61761;BME280;47664;51.660;-0.100;2023-03-31T05:35:59;97880.44;;;9.29;68.82
61761;BME280;47664;51.660;-0.100;2023-03-31T05:38:27;97878.84;;;9.25;69.68
61761;BME280;47664;51.660;-0.100;2023-03-31T05:40:55;97875.25;;;9.40;69.41
61761;BME280;47664;51.660;-0.100;2023-03-31T05:43:22;97870.65;;;9.69;68.41
61761;BME280;47664;51.660;-0.100;2023-03-31T05:45:49;97864.75;;;9.80;67.96
61761;BME280;47664;51.660;-0.100;2023-03-31T05:48:17;97856.86;;;9.14;69.06
61761;BME280;47664;51.660;-0.100;2023-03-31T05:50:44;97855.21;;;9.49;69.34
61761;BME280;47664;51.660;-0.100;2023-03-31T05:53:11;97850.48;;;8.67;70.12
61761;BME280;47664;51.660;-0.100;2023-03-31T05:55:38;97854.17;;;9.30;70.24
61761;BME280;47664;51.660;-0.100;2023-03-31T05:58:06;97847.75;;;9.42;69.68
61761;BME280;47664;51.660;-0.100;2023-03-31T06:00:33;97845.81;;;9.36;70.91
61761;BME280;47664;51.660;-0.100;2023-03-31T06:03:00;97843.60;;;8.58;71.80
61761;BME280;47664;51.660;-0.100;2023-03-31T06:05:27;97840.46;;;8.80;73.08
61761;BME280;47664;51.660;-0.100;2023-03-31T06:07:55;97837.02;;;9.51;71.81
61761;BME280;47664;51.660;-0.100;2023-03-31T06:10:21;97838.39;;;9.72;69.53
61761;BME280;47664;51.660;-0.100;2023-03-31T06:12:49;97828.91;;;9.38;70.44
61761;BME280;47664;51.660;-0.100;2023-03-31T06:15:16;97820.60;;;9.57;70.51
61761;BME280;47664;51.660;-0.100;2023-03-31T06:17:44;97825.16;;;9.74;70.49
61761;BME280;47664;51.660;-0.100;2023-03-31T06:20:11;97818.52;;;8.90;71.00
61761;BME280;47664;51.660;-0.100;2023-03-31T06:22:37;97828.58;;;9.27;71.73
61761;BME280;47664;51.660;-0.100;2023-03-31T06:25:06;97823.62;;;9.31;71.33
61761;BME280;47664;51.660;-0.100;2023-03-31T06:27:33;97821.39;;;10.18;70.62
61761;BME280;47664;51.660;-0.100;2023-03-31T06:30:00;97816.98;;;9.50;69.93
61761;BME280;47664;51.660;-0.100;2023-03-31T06:32:27;97817.41;;;9.75;69.44
61761;BME280;47664;51.660;-0.100;2023-03-31T06:34:55;97817.55;;;9.81;69.11
61761;BME280;47664;51.660;-0.100;2023-03-31T06:37:23;97819.55;;;9.49;69.80
61761;BME280;47664;51.660;-0.100;2023-03-31T06:39:50;97816.51;;;9.75;70.24
61761;BME280;47664;51.660;-0.100;2023-03-31T06:42:16;97814.37;;;9.83;69.52
61761;BME280;47664;51.660;-0.100;2023-03-31T06:44:43;97810.75;;;9.75;70.50
61761;BME280;47664;51.660;-0.100;2023-03-31T06:47:10;97810.30;;;9.02;70.69
61761;BME280;47664;51.660;-0.100;2023-03-31T06:49:38;97803.55;;;9.12;72.24
61761;BME280;47664;51.660;-0.100;2023-03-31T06:52:05;97807.31;;;8.39;72.06
61761;BME280;47664;51.660;-0.100;2023-03-31T06:54:32;97800.63;;;9.23;72.75
61761;BME280;47664;51.660;-0.100;2023-03-31T06:57:00;97796.59;;;8.80;71.98
61761;BME280;47664;51.660;-0.100;2023-03-31T06:59:27;97797.29;;;9.34;71.11
61761;BME280;47664;51.660;-0.100;2023-03-31T07:01:54;97792.57;;;9.35;71.94
61761;BME280;47664;51.660;-0.100;2023-03-31T07:04:21;97792.69;;;9.29;71.82
61761;BME280;47664;51.660;-0.100;2023-03-31T07:06:49;97795.22;;;9.18;72.21
61761;BME280;47664;51.660;-0.100;2023-03-31T07:09:16;97791.43;;;9.15;71.82
61761;BME280;47664;51.660;-0.100;2023-03-31T07:11:43;97796.21;;;10.05;70.69
61761;BME280;47664;51.660;-0.100;2023-03-31T07:14:10;97794.67;;;9.16;71.39
61761;BME280;47664;51.660;-0.100;2023-03-31T07:16:37;97791.67;;;10.02;71.42
61761;BME280;47664;51.660;-0.100;2023-03-31T07:19:05;97792.52;;;8.92;70.95
61761;BME280;47664;51.660;-0.100;2023-03-31T07:21:32;97791.73;;;9.62;70.65
61761;BME280;47664;51.660;-0.100;2023-03-31T07:24:00;97790.23;;;9.45;69.88
61761;BME280;47664;51.660;-0.100;2023-03-31T07:26:28;97792.54;;;9.78;70.68
61761;BME280;47664;51.660;-0.100;2023-03-31T07:28:55;97790.71;;;9.61;70.66
61761;BME280;47664;51.660;-0.100;2023-03-31T07:31:22;97790.86;;;9.55;71.28
61761;BME280;47664;51.660;-0.100;2023-03-31T07:33:50;97786.98;;;9.89;70.48
61761;BME280;47664;51.660;-0.100;2023-03-31T07:36:17;97785.76;;;9.08;72.15
61761;BME280;47664;51.660;-0.100;2023-03-31T07:38:45;97784.52;;;9.12;71.91
61761;BME280;47664;51.660;-0.100;2023-03-31T07:41:15;97783.08;;;9.07;71.63
61761;BME280;47664;51.660;-0.100;2023-03-31T07:43:43;97781.94;;;9.47;71.23
61761;BME280;47664;51.660;-0.100;2023-03-31T07:46:16;97780.26;;;9.99;70.64
61761;BME280;47664;51.660;-0.100;2023-03-31T07:48:45;97781.13;;;9.92;70.37
61761;BME280;47664;51.660;-0.100;2023-03-31T07:51:13;97779.40;;;9.75;70.26
61761;BME280;47664;51.660;-0.100;2023-03-31T07:53:41;97779.42;;;9.41;70.99
61761;BME280;47664;51.660;-0.100;2023-03-31T07:56:08;97772.33;;;9.58;70.96
61761;BME280;47664;51.660;-0.100;2023-03-31T07:58:35;97772.18;;;9.76;71.15
61761;BME280;47664;51.660;-0.100;2023-03-31T08:01:03;97776.56;;;9.47;70.74
61761;BME280;47664;51.660;-0.100;2023-03-31T08:03:30;97773.30;;;9.77;70.55
61761;BME280;47664;51.660;-0.100;2023-03-31T08:05:58;97774.95;;;9.91;69.14
61761;BME280;47664;51.660;-0.100;2023-03-31T08:08:25;97773.01;;;9.85;70.43
61761;BME280;47664;51.660;-0.100;2023-03-31T08:10:53;97771.54;;;9.86;71.43
61761;BME280;47664;51.660;-0.100;2023-03-31T08:13:21;97774.40;;;10.02;70.20
61761;BME280;47664;51.660;-0.100;2023-03-31T08:15:48;97772.58;;;10.31;70.02
61761;BME280;47664;51.660;-0.100;2023-03-31T08:18:15;97765.71;;;9.79;70.72
61761;BME280;47664;51.660;-0.100;2023-03-31T08:20:42;97767.60;;;9.78;71.46
61761;BME280;47664;51.660;-0.100;2023-03-31T08:23:10;97767.03;;;10.45;70.83
61761;BME280;47664;51.660;-0.100;2023-03-31T08:25:37;97763.96;;;10.22;71.50
61761;BME280;47664;51.660;-0.100;2023-03-31T08:28:04;97767.09;;;9.64;70.83
61761;BME280;47664;51.660;-0.100;2023-03-31T08:30:31;97762.78;;;10.13;70.75
61761;BME280;47664;51.660;-0.100;2023-03-31T08:32:59;97758.91;;;9.63;71.65
61761;BME280;47664;51.660;-0.100;2023-03-31T08:35:26;97758.54;;;9.92;71.00
61761;BME280;47664;51.660;-0.100;2023-03-31T08:37:53;97754.88;;;9.73;71.89
61761;BME280;47664;51.660;-0.100;2023-03-31T08:40:23;97758.66;;;9.37;72.55
61761;BME280;47664;51.660;-0.100;2023-03-31T08:42:55;97752.11;;;9.84;72.56
61761;BME280;47664;51.660;-0.100;2023-03-31T08:45:28;97755.60;;;10.06;72.25
61761;BME280;47664;51.660;-0.100;2023-03-31T08:48:00;97752.78;;;9.57;72.25
61761;BME280;47664;51.660;-0.100;2023-03-31T08:50:31;97747.10;;;10.01;71.23
61761;BME280;47664;51.660;-0.100;2023-03-31T08:53:04;97743.39;;;9.75;70.92
61761;BME280;47664;51.660;-0.100;2023-03-31T08:55:39;97740.02;;;10.46;69.74
61761;BME280;47664;51.660;-0.100;2023-03-31T08:58:18;97739.61;;;9.05;71.98
61761;BME280;47664;51.660;-0.100;2023-03-31T09:00:56;97739.96;;;9.48;73.43
61761;BME280;47664;51.660;-0.100;2023-03-31T09:03:32;97740.31;;;9.81;72.76
61761;BME280;47664;51.660;-0.100;2023-03-31T09:06:04;97740.77;;;9.50;73.48
61761;BME280;47664;51.660;-0.100;2023-03-31T09:08:36;97739.01;;;9.34;75.07
61761;BME280;47664;51.660;-0.100;2023-03-31T09:11:09;97735.85;;;8.23;75.89
61761;BME280;47664;51.660;-0.100;2023-03-31T09:14:05;97731.09;;;9.14;74.36
61761;BME280;47664;51.660;-0.100;2023-03-31T09:16:39;97729.82;;;9.36;73.99
61761;BME280;47664;51.660;-0.100;2023-03-31T09:19:14;97731.03;;;9.40;72.55
61761;BME280;47664;51.660;-0.100;2023-03-31T09:21:45;97732.25;;;10.00;73.10
61761;BME280;47664;51.660;-0.100;2023-03-31T09:24:17;97731.78;;;9.27;74.28
61761;BME280;47664;51.660;-0.100;2023-03-31T09:26:47;97723.40;;;9.41;74.38
61761;BME280;47664;51.660;-0.100;2023-03-31T09:29:18;97716.57;;;9.41;74.18
61761;BME280;47664;51.660;-0.100;2023-03-31T09:31:47;97718.24;;;9.51;74.56
61761;BME280;47664;51.660;-0.100;2023-03-31T09:34:26;97718.10;;;9.06;73.35
61761;BME280;47664;51.660;-0.100;2023-03-31T09:36:54;97718.66;;;9.52;73.30
61761;BME280;47664;51.660;-0.100;2023-03-31T09:39:21;97713.71;;;9.89;72.63
61761;BME280;47664;51.660;-0.100;2023-03-31T09:41:49;97709.50;;;9.71;73.04
61761;BME280;47664;51.660;-0.100;2023-03-31T09:44:24;97710.21;;;9.78;73.68
61761;BME280;47664;51.660;-0.100;2023-03-31T09:46:53;97702.44;;;9.57;74.42
61761;BME280;47664;51.660;-0.100;2023-03-31T09:49:22;97699.96;;;10.00;73.90
61761;BME280;47664;51.660;-0.100;2023-03-31T09:52:00;97696.68;;;9.36;74.25
61761;BME280;47664;51.660;-0.100;2023-03-31T09:54:31;97701.89;;;9.64;73.35
61761;BME280;47664;51.660;-0.100;2023-03-31T09:57:00;97695.48;;;9.85;73.62
61761;BME280;47664;51.660;-0.100;2023-03-31T09:59:31;97696.43;;;9.77;74.37
61761;BME280;47664;51.660;-0.100;2023-03-31T10:02:02;97696.59;;;9.24;73.63
61761;BME280;47664;51.660;-0.100;2023-03-31T10:04:32;97699.46;;;9.78;73.67
61761;BME280;47664;51.660;-0.100;2023-03-31T10:07:03;97696.93;;;9.20;74.57
61761;BME280;47664;51.660;-0.100;2023-03-31T10:09:32;97695.59;;;8.83;76.13
61761;BME280;47664;51.660;-0.100;2023-03-31T10:12:03;97691.97;;;8.97;75.73
61761;BME280;47664;51.660;-0.100;2023-03-31T10:14:39;97694.84;;;9.69;73.53
61761;BME280;47664;51.660;-0.100;2023-03-31T10:17:11;97689.05;;;9.11;76.06
61761;BME280;47664;51.660;-0.100;2023-03-31T10:19:46;97689.07;;;8.83;77.81
61761;BME280;47664;51.660;-0.100;2023-03-31T10:22:15;97686.88;;;9.19;75.98
61761;BME280;47664;51.660;-0.100;2023-03-31T10:24:52;97679.30;;;9.61;75.74
61761;BME280;47664;51.660;-0.100;2023-03-31T10:27:22;97674.55;;;9.96;73.59
61761;BME280;47664;51.660;-0.100;2023-03-31T10:29:51;97680.45;;;9.47;76.07
61761;BME280;47664;51.660;-0.100;2023-03-31T10:32:22;97675.44;;;9.36;76.24
61761;BME280;47664;51.660;-0.100;2023-03-31T10:34:50;97674.46;;;8.93;78.07
61761;BME280;47664;51.660;-0.100;2023-03-31T10:37:20;97680.24;;;9.01;78.97
61761;BME280;47664;51.660;-0.100;2023-03-31T10:39:48;97676.98;;;9.21;79.52
61761;BME280;47664;51.660;-0.100;2023-03-31T10:42:23;97680.06;;;8.86;78.84
61761;BME280;47664;51.660;-0.100;2023-03-31T10:45:10;97682.91;;;8.98;79.72
61761;BME280;47664;51.660;-0.100;2023-03-31T10:47:39;97688.58;;;8.98;79.76
61761;BME280;47664;51.660;-0.100;2023-03-31T10:50:14;97685.44;;;8.12;79.62
61761;BME280;47664;51.660;-0.100;2023-03-31T10:52:44;97691.04;;;9.18;79.33
61761;BME280;47664;51.660;-0.100;2023-03-31T10:55:12;97690.23;;;9.43;79.99
61761;BME280;47664;51.660;-0.100;2023-03-31T10:57:45;97698.59;;;8.70;80.57
61761;BME280;47664;51.660;-0.100;2023-03-31T11:00:25;97706.89;;;8.36;81.80
61761;BME280;47664;51.660;-0.100;2023-03-31T11:03:09;97708.52;;;8.73;81.12
61761;BME280;47664;51.660;-0.100;2023-03-31T11:05:45;97714.34;;;8.88;81.44
61761;BME280;47664;51.660;-0.100;2023-03-31T11:08:26;97725.00;;;8.73;80.45
61761;BME280;47664;51.660;-0.100;2023-03-31T11:11:08;97726.52;;;8.79;79.64
61761;BME280;47664;51.660;-0.100;2023-03-31T11:13:45;97731.89;;;9.32;80.40
61761;BME280;47664;51.660;-0.100;2023-03-31T11:16:19;97729.42;;;8.54;81.50
61761;BME280;47664;51.660;-0.100;2023-03-31T11:18:59;97734.74;;;8.86;81.85
61761;BME280;47664;51.660;-0.100;2023-03-31T11:21:37;97738.80;;;9.12;81.47
61761;BME280;47664;51.660;-0.100;2023-03-31T11:24:18;97742.44;;;8.88;81.30
61761;BME280;47664;51.660;-0.100;2023-03-31T11:26:54;97753.33;;;9.22;80.85
61761;BME280;47664;51.660;-0.100;2023-03-31T11:29:32;97753.30;;;9.56;80.87
61761;BME280;47664;51.660;-0.100;2023-03-31T11:32:19;97763.54;;;9.20;79.94
61761;BME280;47664;51.660;-0.100;2023-03-31T11:35:06;97766.53;;;9.72;79.66
61761;BME280;47664;51.660;-0.100;2023-03-31T11:37:46;97766.54;;;9.81;80.15
61761;BME280;47664;51.660;-0.100;2023-03-31T11:40:33;97765.35;;;9.66;78.27
61761;BME280;47664;51.660;-0.100;2023-03-31T11:43:09;97773.13;;;9.01;79.20
61761;BME280;47664;51.660;-0.100;2023-03-31T11:45:45;97774.50;;;9.28;80.69
61761;BME280;47664;51.660;-0.100;2023-03-31T11:48:23;97777.90;;;9.36;79.81
61761;BME280;47664;51.660;-0.100;2023-03-31T11:50:55;97784.29;;;9.55;79.71
61761;BME280;47664;51.660;-0.100;2023-03-31T11:53:26;97791.43;;;9.65;79.88
61761;BME280;47664;51.660;-0.100;2023-03-31T11:55:56;97797.17;;;9.73;79.61
61761;BME280;47664;51.660;-0.100;2023-03-31T11:58:29;97799.54;;;9.43;80.48
61761;BME280;47664;51.660;-0.100;2023-03-31T12:01:06;97798.04;;;8.81;80.72
61761;BME280;47664;51.660;-0.100;2023-03-31T12:03:41;97799.81;;;9.32;81.80
61761;BME280;47664;51.660;-0.100;2023-03-31T12:06:11;97806.09;;;9.45;83.15
61761;BME280;47664;51.660;-0.100;2023-03-31T12:08:48;97810.96;;;9.35;82.56
61761;BME280;47664;51.660;-0.100;2023-03-31T12:11:21;97816.19;;;9.18;82.10
61761;BME280;47664;51.660;-0.100;2023-03-31T12:13:54;97829.11;;;9.56;82.46
61761;BME280;47664;51.660;-0.100;2023-03-31T12:16:28;97834.57;;;9.33;82.36
61761;BME280;47664;51.660;-0.100;2023-03-31T12:19:05;97835.77;;;9.31;82.51
61761;BME280;47664;51.660;-0.100;2023-03-31T12:21:37;97845.11;;;8.88;83.60
61761;BME280;47664;51.660;-0.100;2023-03-31T12:24:11;97854.18;;;8.37;84.23
61761;BME280;47664;51.660;-0.100;2023-03-31T12:26:46;97858.41;;;9.10;83.14
61761;BME280;47664;51.660;-0.100;2023-03-31T12:29:24;97868.46;;;9.13;83.24
61761;BME280;47664;51.660;-0.100;2023-03-31T12:31:57;97872.18;;;9.27;83.63
61761;BME280;47664;51.660;-0.100;2023-03-31T12:34:25;97868.82;;;9.05;83.86
61761;BME280;47664;51.660;-0.100;2023-03-31T12:37:07;97872.76;;;9.22;83.26
61761;BME280;47664;51.660;-0.100;2023-03-31T12:39:48;97879.01;;;9.35;83.07
61761;BME280;47664;51.660;-0.100;2023-03-31T12:42:34;97882.82;;;9.40;83.01
61761;BME280;47664;51.660;-0.100;2023-03-31T12:45:12;97884.93;;;9.79;82.68
61761;BME280;47664;51.660;-0.100;2023-03-31T12:47:52;97891.80;;;10.02;82.52
61761;BME280;47664;51.660;-0.100;2023-03-31T12:50:35;97892.42;;;10.30;80.49
61761;BME280;47664;51.660;-0.100;2023-03-31T12:53:15;97895.77;;;10.39;79.76
61761;BME280;47664;51.660;-0.100;2023-03-31T12:55:46;97899.89;;;10.09;80.09
61761;BME280;47664;51.660;-0.100;2023-03-31T12:58:45;97902.38;;;9.89;80.16
61761;BME280;47664;51.660;-0.100;2023-03-31T13:01:15;97903.82;;;10.05;78.63
61761;BME280;47664;51.660;-0.100;2023-03-31T13:03:48;97906.33;;;10.08;79.16
61761;BME280;47664;51.660;-0.100;2023-03-31T13:08:59;97914.40;;;11.21;78.39
61761;BME280;47664;51.660;-0.100;2023-03-31T13:11:36;97922.20;;;10.66;78.58
61761;BME280;47664;51.660;-0.100;2023-03-31T13:14:11;97920.42;;;10.36;77.88
61761;BME280;47664;51.660;-0.100;2023-03-31T13:16:39;97917.13;;;11.29;76.32
61761;BME280;47664;51.660;-0.100;2023-03-31T13:19:10;97925.12;;;10.48;78.04
61761;BME280;47664;51.660;-0.100;2023-03-31T13:21:52;97923.72;;;10.61;78.99
61761;BME280;47664;51.660;-0.100;2023-03-31T13:24:21;97924.59;;;10.31;78.76